Time;durP1;ratioP1;P1;durP2;ratioP2;P2;SDS_P1;SDS_P2;PMS_P1;PMS_P2;Temp;Humidity;BMP_temperature;BMP_pressure;BME280_temperature;BME280_humidity;BME280_pressure;Samples;Min_cycle;Max_cycle;Signal;HPM_P1;HPM_P2
2020/12/07 00:01:42;;;;;;;11.70;6.72;;;-3.40;71.10;;;;;;5023213;28;20113;-61
2020/12/07 00:04:08;;;;;;;14.90;9.02;;;-3.50;70.90;;;;;;5030914;28;20026;-59
2020/12/07 00:06:33;;;;;;;16.77;8.93;;;-3.40;71.20;;;;;;5033098;28;20038;-61
2020/12/07 00:08:59;;;;;;;11.20;7.00;;;-3.40;71.20;;;;;;5033095;28;20037;-61
2020/12/07 00:11:25;;;;;;;15.63;8.20;;;-3.40;70.90;;;;;;5033339;28;20038;-61
2020/12/07 00:13:50;;;;;;;14.38;9.15;;;-3.40;70.90;;;;;;5033669;28;20025;-61
2020/12/07 00:16:16;;;;;;;12.25;7.55;;;-3.30;70.70;;;;;;5034282;28;20057;-61
2020/12/07 00:18:43;;;;;;;13.00;8.02;;;-3.30;70.30;;;;;;5033626;28;20026;-61
2020/12/07 00:21:09;;;;;;;14.55;8.38;;;-3.30;70.70;;;;;;5032497;28;20354;-61
2020/12/07 00:23:35;;;;;;;15.57;8.75;;;-3.30;70.70;;;;;;5032396;28;20044;-60
2020/12/07 00:26:02;;;;;;;16.35;8.82;;;-3.40;70.30;;;;;;5033355;28;20057;-60
2020/12/07 00:28:28;;;;;;;11.02;6.97;;;-3.40;70.90;;;;;;5033275;28;20048;-61
2020/12/07 00:30:53;;;;;;;16.60;8.60;;;-3.40;70.40;;;;;;5033594;28;20362;-59
2020/12/07 00:33:19;;;;;;;14.73;8.48;;;-3.40;70.30;;;;;;5034587;28;20441;-61
2020/12/07 00:35:45;;;;;;;17.50;9.30;;;-3.50;70.50;;;;;;5033486;28;20033;-60
2020/12/07 00:38:10;;;;;;;15.77;8.88;;;-3.50;70.70;;;;;;5033366;28;20033;-61
2020/12/07 00:40:37;;;;;;;14.35;8.13;;;-3.60;70.90;;;;;;5033148;28;20389;-60
2020/12/07 00:43:02;;;;;;;17.80;9.63;;;-3.50;71.40;;;;;;5036719;28;20541;-61
2020/12/07 00:45:28;;;;;;;13.88;8.27;;;-3.60;70.50;;;;;;5037592;28;20096;-60
2020/12/07 00:47:54;;;;;;;12.32;7.85;;;-3.60;71.10;;;;;;5037952;28;20099;-61
2020/12/07 00:50:19;;;;;;;14.00;7.75;;;-3.60;71.10;;;;;;5056568;28;20036;-61
2020/12/07 00:52:45;;;;;;;15.57;8.90;;;-3.60;71.50;;;;;;5057060;28;20373;-61
2020/12/07 00:55:11;;;;;;;17.48;8.50;;;-3.60;71.50;;;;;;5041761;28;20156;-61
2020/12/07 00:57:36;;;;;;;16.13;8.80;;;-3.60;71.60;;;;;;5050683;28;20033;-61
2020/12/07 01:00:06;;;;;;;15.30;8.85;;;-3.60;71.70;;;;;;5038401;28;20018;-61
2020/12/07 01:02:33;;;;;;;12.02;7.10;;;-3.60;71.00;;;;;;5036985;28;20377;-60
2020/12/07 01:04:58;;;;;;;12.48;7.25;;;-3.60;71.50;;;;;;5052343;28;20029;-61
2020/12/07 01:07:24;;;;;;;16.60;8.68;;;-3.60;71.50;;;;;;5055689;28;20025;-61
2020/12/07 01:09:50;;;;;;;14.13;7.45;;;-3.60;71.70;;;;;;5040488;28;20117;-61
2020/12/07 01:12:15;;;;;;;15.30;8.45;;;-3.50;71.70;;;;;;5036558;28;20037;-61
2020/12/07 01:14:41;;;;;;;13.50;8.48;;;-3.50;71.20;;;;;;5049326;28;20028;-61
2020/12/07 01:17:07;;;;;;;15.77;8.80;;;-3.50;71.40;;;;;;5054965;28;20025;-60
2020/12/07 01:19:32;;;;;;;14.90;8.15;;;-3.60;71.10;;;;;;5054618;28;20033;-61
2020/12/07 01:21:58;;;;;;;19.40;9.77;;;-3.60;71.00;;;;;;5051802;28;20071;-60
2020/12/07 01:24:24;;;;;;;13.52;7.70;;;-3.50;71.40;;;;;;5045634;28;20469;-61
2020/12/07 01:26:49;;;;;;;15.98;8.70;;;-3.60;71.20;;;;;;5038717;28;20375;-60
2020/12/07 01:29:15;;;;;;;11.80;6.97;;;-3.60;70.90;;;;;;5054043;28;20115;-60
2020/12/07 01:31:41;;;;;;;14.18;7.90;;;-3.60;71.20;;;;;;5053705;28;20103;-60
2020/12/07 01:34:06;;;;;;;11.45;7.13;;;-3.60;71.40;;;;;;5052887;28;20472;-60
2020/12/07 01:36:32;;;;;;;12.88;7.65;;;-3.60;71.30;;;;;;5053494;28;20021;-60
2020/12/07 01:38:58;;;;;;;12.80;7.28;;;-3.60;71.00;;;;;;5050265;28;20021;-60
2020/12/07 01:41:24;;;;;;;11.32;6.90;;;-3.60;70.80;;;;;;5042921;28;20037;-60
2020/12/07 01:43:49;;;;;;;13.65;7.50;;;-3.50;70.80;;;;;;5046960;28;20354;-61
2020/12/07 01:46:20;;;;;;;9.40;6.90;;;-3.50;70.60;;;;;;5051812;28;20023;-61
2020/12/07 01:48:47;;;;;;;13.88;7.50;;;-3.50;70.10;;;;;;5041492;28;20118;-61
2020/12/07 01:51:14;;;;;;;9.15;6.60;;;-3.50;70.30;;;;;;5051189;28;20051;-61
2020/12/07 01:53:41;;;;;;;15.07;7.63;;;-3.50;70.10;;;;;;5039533;28;20044;-61
2020/12/07 01:56:11;;;;;;;13.57;7.82;;;-3.60;69.40;;;;;;5046428;28;20036;-61
2020/12/07 01:58:37;;;;;;;12.30;7.35;;;-3.60;69.80;;;;;;5054775;28;20024;-61
2020/12/07 02:01:03;;;;;;;12.65;8.45;;;-3.60;70.10;;;;;;5052419;28;20017;-61
2020/12/07 02:03:29;;;;;;;13.40;7.72;;;-3.60;69.60;;;;;;5047320;28;20029;-60
2020/12/07 02:05:55;;;;;;;13.20;7.72;;;-3.60;70.20;;;;;;5047175;28;20457;-60
2020/12/07 02:08:20;;;;;;;13.95;8.45;;;-3.60;70.30;;;;;;5046967;28;20025;-60
2020/12/07 02:10:47;;;;;;;13.55;8.65;;;-3.60;69.20;;;;;;5041172;28;20540;-60
2020/12/07 02:13:13;;;;;;;10.23;6.97;;;-3.70;68.90;;;;;;5047134;28;20048;-60
2020/12/07 02:15:40;;;;;;;13.55;7.35;;;-3.80;69.40;;;;;;5049660;28;20033;-60
2020/12/07 02:18:07;;;;;;;13.80;7.28;;;-3.80;69.60;;;;;;5044058;28;20022;-60
2020/12/07 02:20:33;;;;;;;12.98;7.88;;;-3.80;69.20;;;;;;5043713;28;20029;-61
2020/12/07 02:22:59;;;;;;;12.50;6.88;;;-3.80;69.10;;;;;;5038175;28;20374;-61
2020/12/07 02:25:25;;;;;;;14.18;7.20;;;-3.80;69.60;;;;;;5049121;28;20056;-61
2020/12/07 02:27:52;;;;;;;15.25;8.68;;;-3.80;69.80;;;;;;5038718;28;20076;-59
2020/12/07 02:30:23;;;;;;;13.95;8.25;;;-3.80;69.10;;;;;;5039774;28;20021;-61
2020/12/07 02:32:50;;;;;;;11.93;7.78;;;-3.80;69.60;;;;;;5048738;28;20032;-60
2020/12/07 02:35:16;;;;;;;15.98;7.95;;;-3.90;69.60;;;;;;5044986;28;20429;-60
2020/12/07 02:37:44;;;;;;;19.25;9.95;;;-4.00;69.30;;;;;;5043009;28;20030;-59
2020/12/07 02:40:10;;;;;;;15.65;8.05;;;-4.00;69.20;;;;;;5042017;28;20413;-61
2020/12/07 02:42:37;;;;;;;17.60;9.23;;;-4.00;69.40;;;;;;5042736;28;20033;-61
2020/12/07 02:45:08;;;;;;;15.05;8.60;;;-4.10;69.00;;;;;;5035063;28;20115;-61
2020/12/07 02:47:34;;;;;;;14.48;8.60;;;-4.10;69.40;;;;;;5037201;28;20100;-61
2020/12/07 02:50:00;;;;;;;13.75;8.60;;;-4.10;69.10;;;;;;5039439;28;20032;-61
2020/12/07 02:52:27;;;;;;;12.32;8.23;;;-4.20;69.00;;;;;;5038045;28;20025;-60
2020/12/07 02:54:57;;;;;;;16.05;9.57;;;-4.20;69.60;;;;;;5038295;28;20026;-60
2020/12/07 02:57:23;;;;;;;14.00;7.78;;;-4.10;69.20;;;;;;5050919;28;20021;-61
2020/12/07 02:59:50;;;;;;;10.90;7.45;;;-4.20;69.50;;;;;;5040572;28;20516;-61
2020/12/07 03:02:17;;;;;;;14.88;8.93;;;-4.20;69.70;;;;;;5048205;28;20026;-61
2020/12/07 03:04:43;;;;;;;16.27;9.25;;;-4.10;69.90;;;;;;5048936;28;20104;-60
2020/12/07 03:07:09;;;;;;;13.80;7.95;;;-4.20;69.00;;;;;;5044831;28;20416;-61
2020/12/07 03:09:35;;;;;;;9.60;7.13;;;-4.20;69.10;;;;;;5048652;28;20037;-60
2020/12/07 03:12:00;;;;;;;13.32;8.40;;;-4.20;69.30;;;;;;5050887;28;20376;-60
2020/12/07 03:14:27;;;;;;;15.88;8.48;;;-4.20;69.50;;;;;;5046230;28;20355;-60
2020/12/07 03:16:53;;;;;;;12.82;7.28;;;-4.20;70.10;;;;;;5043987;28;20053;-60
2020/12/07 03:19:19;;;;;;;12.57;7.68;;;-4.20;69.40;;;;;;5043242;28;20032;-61
2020/12/07 03:21:45;;;;;;;13.57;8.43;;;-4.20;69.60;;;;;;5043053;28;20021;-61
2020/12/07 03:24:11;;;;;;;12.13;7.20;;;-4.20;69.60;;;;;;5044252;28;20082;-61
2020/12/07 03:26:37;;;;;;;14.20;8.38;;;-4.20;69.50;;;;;;5044227;28;20101;-60
2020/12/07 03:29:03;;;;;;;14.63;7.95;;;-4.20;69.40;;;;;;5034965;28;20239;-60
2020/12/07 03:31:33;;;;;;;11.20;7.35;;;-4.20;69.60;;;;;;5040437;28;20026;-60
2020/12/07 03:34:00;;;;;;;16.05;8.68;;;-4.20;69.80;;;;;;5043111;28;20032;-61
2020/12/07 03:36:26;;;;;;;14.85;8.90;;;-4.20;69.40;;;;;;5033641;28;20025;-61
2020/12/07 03:38:52;;;;;;;12.40;7.35;;;-4.20;69.60;;;;;;5042378;28;20032;-60
2020/12/07 03:41:18;;;;;;;11.48;7.43;;;-4.10;69.80;;;;;;5046243;28;20493;-60
2020/12/07 03:43:45;;;;;;;14.60;8.52;;;-4.20;69.60;;;;;;5039483;28;20013;-61
2020/12/07 03:46:11;;;;;;;14.05;8.13;;;-4.10;69.40;;;;;;5036321;28;20018;-59
2020/12/07 03:48:37;;;;;;;12.40;7.65;;;-4.10;69.10;;;;;;5036844;28;20024;-61
2020/12/07 03:51:03;;;;;;;13.02;7.47;;;-4.10;68.90;;;;;;5034598;28;20130;-60
2020/12/07 03:53:33;;;;;;;11.43;6.82;;;-4.10;69.00;;;;;;5034972;28;20109;-60
2020/12/07 03:55:59;;;;;;;11.00;7.20;;;-4.10;69.00;;;;;;5036100;28;20017;-61
2020/12/07 03:58:25;;;;;;;14.18;8.30;;;-4.10;69.10;;;;;;5053224;28;20029;-59
2020/12/07 04:00:51;;;;;;;13.88;7.53;;;-4.10;69.20;;;;;;5049454;28;20112;-61
2020/12/07 04:03:17;;;;;;;14.60;8.60;;;-4.10;68.80;;;;;;5049071;28;20092;-61
2020/12/07 04:05:45;;;;;;;12.43;7.63;;;-4.10;69.10;;;;;;5035490;28;20033;-58
2020/12/07 04:08:12;;;;;;;11.80;7.45;;;-4.10;68.50;;;;;;5043255;28;20017;-61
2020/12/07 04:10:38;;;;;;;14.93;8.45;;;-4.10;68.80;;;;;;5037701;28;20026;-61
2020/12/07 04:13:05;;;;;;;13.82;8.75;;;-4.20;69.00;;;;;;5039122;28;20026;-59
2020/12/07 04:15:31;;;;;;;17.15;8.90;;;-4.20;68.80;;;;;;5027654;28;20033;-60
2020/12/07 04:17:57;;;;;;;13.40;7.50;;;-4.20;68.60;;;;;;5022242;28;20022;-60
2020/12/07 04:20:23;;;;;;;12.88;7.28;;;-4.20;68.80;;;;;;5037310;28;20409;-61
2020/12/07 04:22:49;;;;;;;11.50;7.22;;;-4.20;69.20;;;;;;5031199;28;20029;-61
2020/12/07 04:25:15;;;;;;;14.85;7.97;;;-4.20;69.10;;;;;;5039525;28;20022;-60
2020/12/07 04:27:41;;;;;;;15.07;8.13;;;-4.20;69.20;;;;;;5038042;28;20497;-60
2020/12/07 04:30:07;;;;;;;15.68;7.60;;;-4.20;69.00;;;;;;5039595;28;20033;-60
2020/12/07 04:32:32;;;;;;;13.32;8.35;;;-4.20;69.10;;;;;;5055567;28;20357;-58
2020/12/07 04:34:58;;;;;;;13.15;7.82;;;-4.20;68.90;;;;;;5048959;28;20040;-60
2020/12/07 04:37:24;;;;;;;12.10;6.57;;;-4.20;69.00;;;;;;5038915;28;20104;-60
2020/12/07 04:39:50;;;;;;;13.55;7.68;;;-4.20;69.20;;;;;;5047446;28;20357;-60
2020/12/07 04:42:16;;;;;;;11.98;6.80;;;-4.20;69.10;;;;;;5052141;28;20025;-60
2020/12/07 04:44:42;;;;;;;13.30;6.80;;;-4.20;68.90;;;;;;5051244;28;20021;-61
2020/12/07 04:47:09;;;;;;;11.43;7.28;;;-4.20;69.40;;;;;;5046421;28;20025;-60
2020/12/07 04:49:36;;;;;;;12.15;6.68;;;-4.10;69.20;;;;;;5044718;28;20330;-60
2020/12/07 04:52:02;;;;;;;18.15;8.07;;;-4.10;69.30;;;;;;5045261;28;20027;-60
2020/12/07 04:54:29;;;;;;;13.00;7.32;;;-4.10;69.10;;;;;;5048169;28;20055;-61
2020/12/07 04:56:58;;;;;;;11.18;6.45;;;-4.10;68.90;;;;;;5050380;28;20032;-59
2020/12/07 04:59:24;;;;;;;14.77;7.65;;;-4.10;68.70;;;;;;5056025;28;20417;-60
2020/12/07 05:01:51;;;;;;;11.40;7.07;;;-4.20;67.90;;;;;;5054662;28;20048;-60
2020/12/07 05:04:16;;;;;;;12.52;6.45;;;-4.20;68.70;;;;;;5041796;28;20392;-61
2020/12/07 05:06:42;;;;;;;13.25;7.55;;;-4.20;68.90;;;;;;5054601;28;20134;-61
2020/12/07 05:09:09;;;;;;;13.43;7.15;;;-4.20;69.40;;;;;;5043852;28;20028;-60
2020/12/07 05:11:35;;;;;;;11.38;6.35;;;-4.10;70.10;;;;;;5045094;28;20100;-60
2020/12/07 05:14:09;;;;;;;11.70;6.90;;;-4.10;69.40;;;;;;5053261;28;20100;-60
2020/12/07 05:16:34;;;;;;;13.35;6.70;;;-4.00;69.60;;;;;;5048203;28;20025;-60
2020/12/07 05:19:01;;;;;;;11.13;6.43;;;-3.90;69.70;;;;;;5052199;28;20518;-61
2020/12/07 05:21:27;;;;;;;11.82;6.65;;;-3.90;69.20;;;;;;5034162;28;20030;-61
2020/12/07 05:23:53;;;;;;;14.30;6.57;;;-3.90;69.10;;;;;;5040047;28;20033;-60
2020/12/07 05:26:21;;;;;;;12.25;7.15;;;-3.90;69.10;;;;;;5034939;28;20027;-61
2020/12/07 05:28:51;;;;;;;13.07;6.05;;;-3.80;68.90;;;;;;5034619;28;20045;-59
2020/12/07 05:31:19;;;;;;;9.75;5.88;;;-3.80;68.80;;;;;;5035334;28;20068;-60
2020/12/07 05:33:47;;;;;;;11.82;7.00;;;-3.90;68.60;;;;;;5043294;28;20056;-60
2020/12/07 05:36:17;;;;;;;12.82;6.32;;;-3.90;68.40;;;;;;5040225;28;20541;-60
2020/12/07 05:38:46;;;;;;;11.75;7.55;;;-3.90;68.40;;;;;;5044742;28;20100;-60
2020/12/07 05:41:12;;;;;;;13.38;7.25;;;-3.90;68.40;;;;;;5040557;28;20024;-60
2020/12/07 05:43:39;;;;;;;13.20;6.60;;;-4.00;68.40;;;;;;5039798;28;20033;-60
2020/12/07 05:46:06;;;;;;;10.57;6.35;;;-4.00;68.20;;;;;;5039361;28;20098;-61
2020/12/07 05:48:34;;;;;;;13.63;7.50;;;-4.00;68.50;;;;;;5038788;28;20024;-61
2020/12/07 05:51:09;;;;;;;11.38;6.82;;;-4.00;68.50;;;;;;5037177;28;20079;-59
2020/12/07 05:53:40;;;;;;;14.60;7.32;;;-4.00;68.50;;;;;;5035453;28;20444;-60
2020/12/07 05:56:07;;;;;;;8.90;6.25;;;-3.90;68.70;;;;;;5038655;28;20040;-61
2020/12/07 05:59:03;;;;;;;10.77;6.25;;;-3.90;68.50;;;;;;5053171;28;20035;-60
2020/12/07 06:01:31;;;;;;;10.13;6.25;;;-3.90;68.40;;;;;;5041160;28;20049;-61
2020/12/07 06:03:57;;;;;;;13.07;8.27;;;-4.00;68.20;;;;;;5032656;28;20021;-59
2020/12/07 06:06:31;;;;;;;11.00;6.30;;;-4.00;68.50;;;;;;5032905;28;20032;-60
2020/12/07 06:08:59;;;;;;;10.88;6.25;;;-4.00;68.30;;;;;;5040265;28;20032;-61
2020/12/07 06:11:27;;;;;;;9.95;6.50;;;-4.00;68.20;;;;;;5043812;28;20417;-61
2020/12/07 06:13:54;;;;;;;12.52;7.15;;;-4.00;68.20;;;;;;5043714;28;20063;-61
2020/12/07 06:16:25;;;;;;;9.15;6.60;;;-4.00;68.20;;;;;;5038233;28;20024;-61
2020/12/07 06:18:56;;;;;;;11.73;6.88;;;-4.00;68.00;;;;;;5040444;28;20029;-60
2020/12/07 06:21:23;;;;;;;10.95;6.97;;;-4.00;68.50;;;;;;5034867;28;20026;-60
2020/12/07 06:23:49;;;;;;;11.38;6.57;;;-4.00;68.60;;;;;;5033769;28;20163;-60
2020/12/07 06:26:17;;;;;;;13.82;7.80;;;-3.90;68.50;;;;;;5025245;28;20022;-60
2020/12/07 06:28:45;;;;;;;12.65;7.47;;;-3.90;68.20;;;;;;5047598;28;20042;-60
2020/12/07 06:31:13;;;;;;;12.35;7.47;;;-4.00;67.90;;;;;;5040916;28;20476;-60
2020/12/07 06:33:52;;;;;;;10.68;6.55;;;-4.00;67.60;;;;;;5026211;28;20049;-60
2020/12/07 06:36:36;;;;;;;9.95;6.28;;;-4.00;68.20;;;;;;5037559;28;20022;-60
2020/12/07 06:39:05;;;;;;;9.98;6.50;;;-4.00;68.50;;;;;;5031324;28;20017;-61
2020/12/07 06:41:37;;;;;;;11.60;6.50;;;-4.00;68.80;;;;;;5043591;28;20472;-60
2020/12/07 06:44:05;;;;;;;;;;;-4.00;68.40;;;;;;5031677;28;20113;-59
2020/12/07 06:46:47;;;;;;;11.25;7.07;;;-4.00;67.00;;;;;;5028367;28;19913;-50
2020/12/07 06:49:13;;;;;;;12.07;7.60;;;-4.10;67.40;;;;;;5020280;28;20080;-54
2020/12/07 06:51:42;;;;;;;12.40;7.43;;;-4.10;68.10;;;;;;5020928;28;20041;-49
2020/12/07 06:55:03;;;;;;;14.55;8.13;;;-4.10;67.90;;;;;;5022940;28;20478;-49
2020/12/07 06:56:56;;;;;;;13.68;7.20;;;-4.20;67.80;;;;;;5022346;28;20108;-50
2020/12/07 06:59:22;;;;;;;13.68;7.72;;;-4.20;68.00;;;;;;5023853;28;20082;-50
2020/12/07 07:01:51;;;;;;;13.30;7.60;;;-4.20;68.80;;;;;;5021179;28;20105;-49
2020/12/07 07:04:20;;;;;;;10.75;6.47;;;-4.20;68.50;;;;;;5022227;28;20347;-51
2020/12/07 07:06:46;;;;;;;18.83;8.23;;;-4.20;67.90;;;;;;5021097;28;20040;-49
2020/12/07 07:09:11;;;;;;;12.95;7.30;;;-4.20;67.90;;;;;;5024611;28;20017;-50
2020/12/07 07:11:37;;;;;;;11.80;6.78;;;-4.20;68.40;;;;;;5017732;28;20035;-52
2020/12/07 07:14:03;;;;;;;13.55;7.32;;;-4.20;68.50;;;;;;5024952;28;20092;-50
2020/12/07 07:16:32;;;;;;;11.68;7.70;;;-4.10;69.00;;;;;;5018857;28;20027;-52
2020/12/07 07:18:58;;;;;;;14.32;8.60;;;-4.10;68.70;;;;;;5022748;28;20108;-52
2020/12/07 07:21:24;;;;;;;12.55;7.82;;;-4.10;68.20;;;;;;5021130;28;20058;-51
2020/12/07 07:23:52;;;;;;;18.88;10.27;;;-4.10;68.10;;;;;;5025030;28;20028;-50
2020/12/07 07:26:27;;;;;;;14.43;8.73;;;-4.10;67.90;;;;;;5019289;28;20032;-51
2020/12/07 07:28:53;;;;;;;14.85;7.40;;;-4.00;68.30;;;;;;5024810;28;20552;-49
2020/12/07 07:31:19;;;;;;;20.73;12.63;;;-4.00;68.30;;;;;;5019795;28;20168;-51
2020/12/07 07:33:45;;;;;;;24.75;17.25;;;-4.00;68.30;;;;;;5021563;28;20034;-51
2020/12/07 07:36:24;;;;;;;23.08;14.52;;;-3.90;68.30;;;;;;5024464;28;20574;-51
2020/12/07 07:38:54;;;;;;;14.52;8.77;;;-3.90;67.40;;;;;;5020067;28;21017;-51
2020/12/07 07:41:25;;;;;;;21.35;10.15;;;-3.90;68.10;;;;;;5017307;28;20034;-52
2020/12/07 07:43:52;;;;;;;14.30;9.65;;;-3.80;67.40;;;;;;5016810;28;20062;-52
2020/12/07 07:46:22;;;;;;;19.13;11.77;;;-3.90;67.10;;;;;;5015140;28;20079;-52
2020/12/07 08:06:52;;;;;;;13.43;7.75;;;-3.90;67.30;;;;;;5013466;28;20037;-53
2020/12/07 08:17:16;;;;;;;39.08;23.38;;;-3.80;67.30;;;;;;5012345;28;20075;-49
2020/12/07 08:19:43;;;;;;;20.95;13.18;;;-3.70;68.10;;;;;;5014822;28;20049;-49
2020/12/07 08:22:19;;;;;;;12.98;9.00;;;-3.70;67.90;;;;;;5011865;28;20069;-51
2020/12/07 08:24:52;;;;;;;25.25;11.18;;;-3.70;67.00;;;;;;5012299;28;20089;-49
2020/12/07 08:27:17;;;;;;;12.48;7.40;;;-3.60;67.30;;;;;;5010747;28;20049;-49
2020/12/07 08:29:43;;;;;;;14.48;9.98;;;-3.70;67.00;;;;;;5009441;28;20026;-52
2020/12/07 08:32:24;;;;;;;12.02;7.82;;;-3.60;66.50;;;;;;5010098;28;20108;-49
2020/12/07 08:34:50;;;;;;;13.48;8.85;;;-3.60;66.80;;;;;;5016672;28;20463;-53
2020/12/07 08:37:16;;;;;;;19.02;13.00;;;-3.60;67.10;;;;;;5016388;28;20026;-49
2020/12/07 08:39:42;;;;;;;14.50;7.80;;;-3.50;67.20;;;;;;5015820;28;20030;-51
2020/12/07 08:42:08;;;;;;;13.63;7.78;;;-3.50;67.30;;;;;;5016313;28;20577;-52
2020/12/07 08:44:34;;;;;;;19.88;13.20;;;-3.40;67.00;;;;;;5012180;28;20083;-52
2020/12/07 08:47:00;;;;;;;16.38;10.35;;;-3.30;66.10;;;;;;5009102;28;20394;-51
2020/12/07 08:49:25;;;;;;;35.42;26.35;;;-3.40;65.70;;;;;;5010575;28;20120;-50
2020/12/07 08:51:53;;;;;;;17.67;10.07;;;-3.40;66.40;;;;;;5015680;28;20054;-53
2020/12/07 08:54:18;;;;;;;48.78;30.73;;;-3.40;66.50;;;;;;5008015;28;20057;-50
2020/12/07 08:56:44;;;;;;;20.90;12.27;;;-3.40;66.10;;;;;;5011064;28;20632;-50
2020/12/07 08:59:10;;;;;;;16.38;12.82;;;-3.40;65.90;;;;;;5008459;28;20445;-53
2020/12/07 09:01:35;;;;;;;29.90;18.40;;;-3.40;65.90;;;;;;5012219;28;20116;-52
2020/12/07 09:04:03;;;;;;;14.55;9.88;;;-3.30;65.90;;;;;;5017947;28;20092;-51
2020/12/07 09:06:29;;;;;;;11.35;7.38;;;-3.30;66.10;;;;;;5018889;28;20034;-52
2020/12/07 09:08:55;;;;;;;11.57;8.13;;;-3.30;66.40;;;;;;5019478;28;20040;-53
2020/12/07 09:11:21;;;;;;;9.95;6.80;;;-3.20;66.00;;;;;;5016755;28;20091;-51
2020/12/07 09:13:47;;;;;;;13.35;6.40;;;-3.10;66.40;;;;;;5011882;28;20033;-53
2020/12/07 09:16:13;;;;;;;8.52;5.63;;;-3.00;66.30;;;;;;5019635;28;20521;-50
2020/12/07 09:18:39;;;;;;;11.30;7.47;;;-3.00;66.10;;;;;;5019208;28;20694;-51
2020/12/07 09:21:06;;;;;;;12.18;8.25;;;-2.90;65.70;;;;;;5017033;28;20030;-50
2020/12/07 09:23:35;;;;;;;16.55;10.73;;;-2.90;65.70;;;;;;5016137;28;20133;-52
2020/12/07 09:26:05;;;;;;;21.02;16.02;;;-2.90;65.00;;;;;;5013826;28;20347;-54
2020/12/07 09:28:31;;;;;;;17.38;12.82;;;-2.90;64.70;;;;;;5015121;28;20116;-53
2020/12/07 09:30:58;;;;;;;11.98;8.73;;;-3.00;64.70;;;;;;5013654;28;20160;-52
2020/12/07 09:33:23;;;;;;;11.65;6.60;;;-3.00;64.90;;;;;;5013424;28;20524;-53
2020/12/07 09:35:49;;;;;;;12.27;8.55;;;-3.00;65.40;;;;;;5016510;28;20064;-50
2020/12/07 09:38:15;;;;;;;28.00;18.88;;;-2.90;64.20;;;;;;5016998;28;20029;-53
2020/12/07 09:40:41;;;;;;;13.07;9.15;;;-3.00;64.20;;;;;;5019536;28;20026;-51
2020/12/07 09:43:06;;;;;;;14.07;7.18;;;-3.00;65.30;;;;;;5013580;28;20034;-50
2020/12/07 09:45:32;;;;;;;10.63;6.65;;;-2.90;65.80;;;;;;5013602;28;20029;-54
2020/12/07 09:47:59;;;;;;;8.05;5.68;;;-2.90;65.70;;;;;;5015521;28;20025;-53
2020/12/07 09:50:25;;;;;;;11.20;6.38;;;-2.80;65.40;;;;;;5011432;28;20095;-50
2020/12/07 09:52:50;;;;;;;8.55;6.22;;;-2.80;65.30;;;;;;5020404;28;20033;-55
2020/12/07 09:55:16;;;;;;;9.07;6.50;;;-2.70;65.50;;;;;;5022430;28;20117;-54
2020/12/07 09:57:42;;;;;;;16.70;10.40;;;-2.60;65.30;;;;;;5019082;28;20029;-53
2020/12/07 10:00:08;;;;;;;9.77;7.60;;;-2.60;64.30;;;;;;5018543;28;20112;-54
2020/12/07 10:02:34;;;;;;;9.45;6.32;;;-2.70;64.70;;;;;;5018849;28;20492;-54
2020/12/07 10:05:00;;;;;;;16.42;10.52;;;-2.70;64.90;;;;;;5018451;28;20442;-50
2020/12/07 10:07:26;;;;;;;11.18;6.18;;;-2.60;65.20;;;;;;5005317;28;20021;-52
2020/12/07 10:09:51;;;;;;;10.55;6.78;;;-2.60;64.70;;;;;;5020560;28;20025;-54
2020/12/07 10:12:17;;;;;;;17.10;10.13;;;-2.60;65.20;;;;;;5017375;28;20049;-51
2020/12/07 10:14:43;;;;;;;16.33;9.85;;;-2.50;64.30;;;;;;5013445;28;20037;-53
2020/12/07 10:17:09;;;;;;;12.80;6.97;;;-2.60;63.50;;;;;;5010975;28;20033;-55
2020/12/07 10:19:35;;;;;;;10.75;6.53;;;-2.70;64.10;;;;;;5006643;28;20091;-53
2020/12/07 10:22:07;;;;;;;10.25;6.22;;;-2.60;65.00;;;;;;5007727;28;20033;-52
2020/12/07 10:24:33;;;;;;;13.00;6.47;;;-2.60;65.10;;;;;;5015716;28;20454;-54
2020/12/07 10:26:59;;;;;;;9.88;6.57;;;-2.50;65.10;;;;;;5015950;28;20041;-54
2020/12/07 10:29:26;;;;;;;11.38;6.55;;;-2.50;64.60;;;;;;5014811;28;20034;-53
2020/12/07 10:31:52;;;;;;;11.40;6.22;;;-2.40;64.80;;;;;;5011810;28;20033;-51
2020/12/07 10:34:17;;;;;;;9.55;5.97;;;-2.40;64.70;;;;;;5011827;28;20053;-54
2020/12/07 10:36:47;;;;;;;10.82;6.72;;;-2.30;65.00;;;;;;5016802;28;20033;-52
2020/12/07 10:39:13;;;;;;;10.95;6.13;;;-2.30;64.50;;;;;;5015443;28;20039;-55
2020/12/07 10:41:39;;;;;;;10.25;6.78;;;-2.20;65.00;;;;;;5012601;28;20038;-54
2020/12/07 10:44:04;;;;;;;10.25;6.13;;;-2.20;65.00;;;;;;5010021;28;20045;-53
2020/12/07 10:46:30;;;;;;;16.80;7.18;;;-2.10;64.90;;;;;;5009449;28;20029;-51
2020/12/07 10:48:56;;;;;;;9.18;6.05;;;-2.10;64.60;;;;;;5015764;28;20022;-54
2020/12/07 10:51:22;;;;;;;9.77;5.75;;;-2.10;64.30;;;;;;5016059;28;21535;-51
2020/12/07 10:53:47;;;;;;;11.60;6.25;;;-2.00;64.80;;;;;;5013425;28;20033;-51
2020/12/07 10:56:14;;;;;;;10.93;6.22;;;-2.00;64.60;;;;;;5014606;28;20099;-54
2020/12/07 10:58:41;;;;;;;12.15;7.03;;;-1.90;64.60;;;;;;5008319;28;20029;-55
2020/12/07 11:01:07;;;;;;;10.98;6.28;;;-1.90;64.30;;;;;;5014476;28;20033;-52
2020/12/07 11:03:33;;;;;;;8.30;5.85;;;-1.90;64.30;;;;;;5017642;28;20028;-55
2020/12/07 11:05:59;;;;;;;12.80;7.00;;;-1.90;64.30;;;;;;5015650;28;20029;-54
2020/12/07 11:08:33;;;;;;;8.88;5.80;;;-1.80;63.90;;;;;;5009489;28;20378;-54
2020/12/07 11:10:59;;;;;;;9.65;6.38;;;-1.80;64.10;;;;;;5013056;28;20037;-52
2020/12/07 11:13:30;;;;;;;10.63;6.03;;;-1.80;64.20;;;;;;5012560;28;20704;-51
2020/12/07 11:16:00;;;;;;;12.53;6.23;;;-1.80;64.10;;;;;;5020268;28;20091;-55
2020/12/07 11:18:27;;;;;;;10.63;6.60;;;-1.80;64.10;;;;;;5011992;28;20041;-55
2020/12/07 11:20:52;;;;;;;9.30;6.07;;;-1.80;63.80;;;;;;5011190;28;20044;-55
2020/12/07 11:23:18;;;;;;;10.15;6.28;;;-1.70;64.00;;;;;;5014484;28;20026;-50
2020/12/07 11:25:45;;;;;;;9.20;6.35;;;-1.70;64.10;;;;;;5012042;28;20535;-54
2020/12/07 11:28:10;;;;;;;10.25;6.75;;;-1.70;63.40;;;;;;5011448;28;20050;-54
2020/12/07 11:30:36;;;;;;;11.38;6.18;;;-1.70;63.40;;;;;;5011377;28;20029;-52
2020/12/07 11:33:02;;;;;;;9.93;6.45;;;-1.70;63.40;;;;;;5013404;28;20029;-55
2020/12/07 11:35:28;;;;;;;12.02;8.45;;;-1.70;63.40;;;;;;5018237;28;20405;-54
2020/12/07 11:38:03;;;;;;;11.30;6.88;;;-1.70;63.20;;;;;;5013116;28;20022;-55
2020/12/07 11:45:54;;;;;;;11.48;6.55;;;-1.60;63.20;;;;;;5014401;28;20033;-52
2020/12/07 11:48:20;;;;;;;9.73;6.43;;;-1.60;63.30;;;;;;5011975;28;20057;-55
2020/12/07 11:50:46;;;;;;;12.82;6.80;;;-1.60;64.10;;;;;;5011047;28;20412;-55
2020/12/07 11:53:12;;;;;;;14.13;7.03;;;-1.60;63.10;;;;;;5002961;28;20037;-54
2020/12/07 11:55:38;;;;;;;12.15;7.60;;;-1.60;63.20;;;;;;5006163;28;20025;-55
2020/12/07 11:58:03;;;;;;;11.63;6.82;;;-1.60;63.20;;;;;;5010633;28;20025;-54
2020/12/07 12:00:29;;;;;;;10.52;6.32;;;-1.60;63.40;;;;;;5013824;28;20397;-53
2020/12/07 12:02:55;;;;;;;10.77;6.13;;;-1.60;63.60;;;;;;5008708;28;20041;-52
2020/12/07 12:05:20;;;;;;;10.63;7.00;;;-1.50;63.60;;;;;;5006769;28;20117;-53
2020/12/07 12:07:46;;;;;;;9.25;6.30;;;-1.50;63.60;;;;;;5007963;28;20728;-54
2020/12/07 12:10:12;;;;;;;8.82;6.10;;;-1.40;63.10;;;;;;5011698;28;20108;-55
2020/12/07 12:12:37;;;;;;;11.00;6.68;;;-1.40;63.10;;;;;;5007262;28;20044;-55
2020/12/07 12:15:04;;;;;;;13.30;7.22;;;-1.40;62.80;;;;;;5009148;28;20110;-55
2020/12/07 12:17:30;;;;;;;8.60;6.10;;;-1.40;63.40;;;;;;5011003;28;20036;-55
2020/12/07 12:19:55;;;;;;;10.88;5.60;;;-1.30;63.30;;;;;;5007667;28;20026;-55
2020/12/07 12:22:21;;;;;;;9.57;5.85;;;-1.30;63.30;;;;;;4996375;28;20517;-53
2020/12/07 12:24:47;;;;;;;10.52;5.93;;;-1.30;63.50;;;;;;5009330;28;20048;-55
2020/12/07 12:27:12;;;;;;;11.80;6.03;;;-1.20;63.20;;;;;;5009879;28;20077;-55
2020/12/07 12:29:38;;;;;;;11.13;6.28;;;-1.20;63.00;;;;;;5010387;28;20478;-54
2020/12/07 12:32:04;;;;;;;9.45;5.97;;;-1.20;63.10;;;;;;5014353;28;20558;-55
2020/12/07 12:34:29;;;;;;;10.73;6.63;;;-1.20;63.00;;;;;;5023721;28;20064;-56
2020/12/07 12:36:55;;;;;;;9.55;6.18;;;-1.20;63.00;;;;;;5014123;28;20030;-53
2020/12/07 12:39:21;;;;;;;10.18;7.00;;;-1.10;62.80;;;;;;5019539;28;20540;-55
2020/12/07 12:41:47;;;;;;;11.90;7.28;;;-1.10;62.80;;;;;;5015047;28;22108;-55
2020/12/07 12:44:13;;;;;;;10.55;6.68;;;-1.10;62.50;;;;;;5015498;28;20041;-55
2020/12/07 12:46:39;;;;;;;10.68;5.82;;;-1.10;62.60;;;;;;5008193;28;20029;-55
2020/12/07 12:49:05;;;;;;;11.13;6.05;;;-1.10;62.60;;;;;;5011551;28;20464;-56
2020/12/07 12:51:31;;;;;;;9.68;5.85;;;-1.10;62.70;;;;;;5018497;28;20041;-55
2020/12/07 12:53:58;;;;;;;8.45;5.43;;;-1.10;62.50;;;;;;5013639;28;20116;-54
2020/12/07 12:56:24;;;;;;;8.32;5.32;;;-1.10;62.60;;;;;;5017270;28;20033;-55
2020/12/07 12:58:49;;;;;;;12.32;6.78;;;-1.00;62.80;;;;;;5017297;28;20037;-52
2020/12/07 13:01:15;;;;;;;11.20;6.10;;;-1.00;62.60;;;;;;5014494;28;22085;-55
2020/12/07 13:03:41;;;;;;;11.20;6.55;;;-1.00;62.60;;;;;;5013564;28;20112;-55
2020/12/07 13:06:07;;;;;;;11.40;6.22;;;-1.00;62.30;;;;;;5009480;28;20025;-55
2020/12/07 13:08:33;;;;;;;12.63;6.43;;;-0.90;62.30;;;;;;5011270;28;20045;-55